Highland, Maryland
Current Conditions -  °F | °C
As of 7:15 PM on Sunday 23 Nov 2014 (Local Time) from KGAI Reporting Station
Overcast Overcast  
Wind Chill: 50°   Ceiling: 5500
Heat Index: 50°   Visibility: 10mi
Dew Point: 36°   Wind: 7mph
Humidity: 58%   Direction: 110°ESE
Pressure: 30.06"   Gusts: NA
Location:  39.18°N, 76.96°W
Report Text: KGAI 240015Z 11006KT 10SM FEW039 OVC055 10/02 A3006 RMK AO1
Loading
Personal Weather Stations






























Interactive Weather Map New forecast layout! Learn more

10-Day Weather Forecast

Advertisements
Track Severe Weather on mobile